sensor_id;sensor_type;location;lat;lon;timestamp;P1;durP1;ratioP1;P2;durP2;ratioP2
74510;SDS011;62991;50.040;18.400;2023-05-10T00:02:35;12.75;;;4.10;;
74510;SDS011;62991;50.040;18.400;2023-05-10T00:05:35;8.88;;;3.85;;
74510;SDS011;62991;50.040;18.400;2023-05-10T00:08:36;13.18;;;3.92;;
74510;SDS011;62991;50.040;18.400;2023-05-10T00:11:37;8.57;;;3.80;;
74510;SDS011;62991;50.040;18.400;2023-05-10T00:14:37;8.82;;;3.97;;
74510;SDS011;62991;50.040;18.400;2023-05-10T00:17:38;8.30;;;3.85;;
74510;SDS011;62991;50.040;18.400;2023-05-10T00:20:39;13.45;;;4.00;;
74510;SDS011;62991;50.040;18.400;2023-05-10T00:23:39;9.25;;;3.70;;
74510;SDS011;62991;50.040;18.400;2023-05-10T00:26:40;7.18;;;3.47;;
74510;SDS011;62991;50.040;18.400;2023-05-10T00:29:42;11.57;;;3.95;;
74510;SDS011;62991;50.040;18.400;2023-05-10T00:32:42;7.03;;;3.42;;
74510;SDS011;62991;50.040;18.400;2023-05-10T00:35:43;6.50;;;3.05;;
74510;SDS011;62991;50.040;18.400;2023-05-10T00:38:44;8.02;;;3.40;;
74510;SDS011;62991;50.040;18.400;2023-05-10T00:41:44;8.60;;;4.22;;
74510;SDS011;62991;50.040;18.400;2023-05-10T00:44:45;12.68;;;4.13;;
74510;SDS011;62991;50.040;18.400;2023-05-10T00:47:46;8.52;;;4.22;;
74510;SDS011;62991;50.040;18.400;2023-05-10T00:50:47;8.07;;;3.70;;
74510;SDS011;62991;50.040;18.400;2023-05-10T00:53:48;9.05;;;4.07;;
74510;SDS011;62991;50.040;18.400;2023-05-10T00:56:51;10.80;;;3.70;;
74510;SDS011;62991;50.040;18.400;2023-05-10T00:59:52;11.50;;;3.75;;
74510;SDS011;62991;50.040;18.400;2023-05-10T01:02:53;9.25;;;4.32;;
74510;SDS011;62991;50.040;18.400;2023-05-10T01:05:54;8.43;;;3.78;;
74510;SDS011;62991;50.040;18.400;2023-05-10T01:08:55;10.13;;;3.70;;
74510;SDS011;62991;50.040;18.400;2023-05-10T01:11:56;8.45;;;3.83;;
74510;SDS011;62991;50.040;18.400;2023-05-10T01:14:57;11.10;;;4.30;;
74510;SDS011;62991;50.040;18.400;2023-05-10T01:17:58;9.00;;;4.05;;
74510;SDS011;62991;50.040;18.400;2023-05-10T01:21:11;8.80;;;3.78;;
74510;SDS011;62991;50.040;18.400;2023-05-10T01:27:24;7.35;;;3.80;;
74510;SDS011;62991;50.040;18.400;2023-05-10T01:34:06;11.32;;;4.28;;
74510;SDS011;62991;50.040;18.400;2023-05-10T01:37:21;9.05;;;3.97;;
74510;SDS011;62991;50.040;18.400;2023-05-10T01:41:06;8.57;;;3.95;;
74510;SDS011;62991;50.040;18.400;2023-05-10T01:44:29;10.43;;;4.30;;
74510;SDS011;62991;50.040;18.400;2023-05-10T01:47:42;12.45;;;4.07;;
74510;SDS011;62991;50.040;18.400;2023-05-10T01:50:45;9.63;;;3.95;;
74510;SDS011;62991;50.040;18.400;2023-05-10T01:53:48;9.55;;;4.38;;
74510;SDS011;62991;50.040;18.400;2023-05-10T01:56:55;9.10;;;3.92;;
74510;SDS011;62991;50.040;18.400;2023-05-10T01:59:58;9.10;;;4.05;;
74510;SDS011;62991;50.040;18.400;2023-05-10T02:03:05;8.95;;;4.00;;
74510;SDS011;62991;50.040;18.400;2023-05-10T02:06:08;7.32;;;3.72;;
74510;SDS011;62991;50.040;18.400;2023-05-10T02:09:12;6.68;;;3.45;;
74510;SDS011;62991;50.040;18.400;2023-05-10T02:12:14;10.32;;;3.95;;
74510;SDS011;62991;50.040;18.400;2023-05-10T02:15:17;6.90;;;3.83;;
74510;SDS011;62991;50.040;18.400;2023-05-10T02:18:22;9.27;;;4.03;;
74510;SDS011;62991;50.040;18.400;2023-05-10T02:21:25;8.02;;;3.78;;
74510;SDS011;62991;50.040;18.400;2023-05-10T02:24:27;6.45;;;3.25;;
74510;SDS011;62991;50.040;18.400;2023-05-10T02:27:29;7.53;;;3.55;;
74510;SDS011;62991;50.040;18.400;2023-05-10T02:30:31;10.10;;;3.65;;
74510;SDS011;62991;50.040;18.400;2023-05-10T02:33:33;7.78;;;3.80;;
74510;SDS011;62991;50.040;18.400;2023-05-10T02:36:34;7.03;;;3.30;;
74510;SDS011;62991;50.040;18.400;2023-05-10T02:39:36;7.90;;;3.70;;
74510;SDS011;62991;50.040;18.400;2023-05-10T02:42:41;9.90;;;3.85;;
74510;SDS011;62991;50.040;18.400;2023-05-10T02:45:44;7.47;;;3.53;;
74510;SDS011;62991;50.040;18.400;2023-05-10T02:48:47;7.18;;;3.60;;
74510;SDS011;62991;50.040;18.400;2023-05-10T02:51:49;8.98;;;3.83;;
74510;SDS011;62991;50.040;18.400;2023-05-10T02:54:55;10.50;;;3.80;;
74510;SDS011;62991;50.040;18.400;2023-05-10T02:58:01;7.35;;;3.63;;
74510;SDS011;62991;50.040;18.400;2023-05-10T03:01:02;7.25;;;3.78;;
74510;SDS011;62991;50.040;18.400;2023-05-10T03:04:03;11.75;;;3.92;;
74510;SDS011;62991;50.040;18.400;2023-05-10T03:07:04;9.50;;;4.05;;
74510;SDS011;62991;50.040;18.400;2023-05-10T03:10:05;7.03;;;3.60;;
74510;SDS011;62991;50.040;18.400;2023-05-10T03:16:52;8.90;;;4.00;;
74510;SDS011;62991;50.040;18.400;2023-05-10T03:20:04;10.35;;;3.90;;
74510;SDS011;62991;50.040;18.400;2023-05-10T03:26:22;8.27;;;3.63;;
74510;SDS011;62991;50.040;18.400;2023-05-10T03:29:26;10.65;;;4.15;;
74510;SDS011;62991;50.040;18.400;2023-05-10T03:32:28;8.93;;;4.15;;
74510;SDS011;62991;50.040;18.400;2023-05-10T03:35:31;6.63;;;3.60;;
74510;SDS011;62991;50.040;18.400;2023-05-10T03:38:32;10.20;;;4.18;;
74510;SDS011;62991;50.040;18.400;2023-05-10T03:41:33;8.63;;;4.07;;
74510;SDS011;62991;50.040;18.400;2023-05-10T03:44:33;7.05;;;3.30;;
74510;SDS011;62991;50.040;18.400;2023-05-10T03:47:34;10.65;;;4.45;;
74510;SDS011;62991;50.040;18.400;2023-05-10T03:50:35;13.63;;;3.97;;
74510;SDS011;62991;50.040;18.400;2023-05-10T03:53:35;9.80;;;4.63;;
74510;SDS011;62991;50.040;18.400;2023-05-10T03:56:36;9.35;;;3.72;;
74510;SDS011;62991;50.040;18.400;2023-05-10T03:59:36;6.55;;;3.38;;
74510;SDS011;62991;50.040;18.400;2023-05-10T04:02:37;9.50;;;3.92;;
74510;SDS011;62991;50.040;18.400;2023-05-10T04:05:38;10.05;;;4.10;;
74510;SDS011;62991;50.040;18.400;2023-05-10T04:08:39;6.90;;;3.92;;
74510;SDS011;62991;50.040;18.400;2023-05-10T04:11:39;7.63;;;3.70;;
74510;SDS011;62991;50.040;18.400;2023-05-10T04:14:40;7.38;;;4.07;;
74510;SDS011;62991;50.040;18.400;2023-05-10T04:17:40;8.77;;;3.47;;
74510;SDS011;62991;50.040;18.400;2023-05-10T04:20:41;8.15;;;4.07;;
74510;SDS011;62991;50.040;18.400;2023-05-10T04:23:42;10.02;;;4.22;;
74510;SDS011;62991;50.040;18.400;2023-05-10T04:26:42;8.48;;;3.85;;
74510;SDS011;62991;50.040;18.400;2023-05-10T04:29:43;7.93;;;3.70;;
74510;SDS011;62991;50.040;18.400;2023-05-10T04:32:44;16.08;;;4.30;;
74510;SDS011;62991;50.040;18.400;2023-05-10T04:35:44;7.97;;;4.35;;
74510;SDS011;62991;50.040;18.400;2023-05-10T04:38:45;7.55;;;3.70;;
74510;SDS011;62991;50.040;18.400;2023-05-10T04:41:45;8.23;;;4.00;;
74510;SDS011;62991;50.040;18.400;2023-05-10T04:44:46;11.38;;;4.50;;
74510;SDS011;62991;50.040;18.400;2023-05-10T04:47:47;9.20;;;4.07;;
74510;SDS011;62991;50.040;18.400;2023-05-10T04:50:47;10.32;;;3.70;;
74510;SDS011;62991;50.040;18.400;2023-05-10T04:53:48;8.63;;;4.00;;
74510;SDS011;62991;50.040;18.400;2023-05-10T04:56:49;7.13;;;3.80;;
74510;SDS011;62991;50.040;18.400;2023-05-10T04:59:49;7.65;;;3.90;;
74510;SDS011;62991;50.040;18.400;2023-05-10T05:02:50;8.23;;;3.20;;
74510;SDS011;62991;50.040;18.400;2023-05-10T05:05:51;6.55;;;3.50;;
74510;SDS011;62991;50.040;18.400;2023-05-10T05:08:52;10.48;;;3.60;;
74510;SDS011;62991;50.040;18.400;2023-05-10T05:11:52;8.60;;;3.80;;
74510;SDS011;62991;50.040;18.400;2023-05-10T05:14:53;12.15;;;3.47;;
74510;SDS011;62991;50.040;18.400;2023-05-10T05:17:54;7.63;;;3.45;;
74510;SDS011;62991;50.040;18.400;2023-05-10T05:20:54;7.88;;;3.45;;
74510;SDS011;62991;50.040;18.400;2023-05-10T05:23:55;7.53;;;3.50;;
74510;SDS011;62991;50.040;18.400;2023-05-10T05:26:56;7.28;;;3.25;;
74510;SDS011;62991;50.040;18.400;2023-05-10T05:29:57;6.85;;;3.17;;
74510;SDS011;62991;50.040;18.400;2023-05-10T05:32:58;14.05;;;3.90;;
74510;SDS011;62991;50.040;18.400;2023-05-10T05:36:02;8.43;;;3.65;;
74510;SDS011;62991;50.040;18.400;2023-05-10T05:39:04;11.52;;;3.80;;
74510;SDS011;62991;50.040;18.400;2023-05-10T05:42:05;7.53;;;3.50;;
74510;SDS011;62991;50.040;18.400;2023-05-10T05:45:05;8.93;;;4.13;;
74510;SDS011;62991;50.040;18.400;2023-05-10T05:48:07;9.15;;;3.67;;
74510;SDS011;62991;50.040;18.400;2023-05-10T05:51:07;6.72;;;3.60;;
74510;SDS011;62991;50.040;18.400;2023-05-10T05:54:08;7.72;;;3.67;;
74510;SDS011;62991;50.040;18.400;2023-05-10T05:57:09;8.63;;;3.60;;
74510;SDS011;62991;50.040;18.400;2023-05-10T06:00:10;10.02;;;3.45;;
74510;SDS011;62991;50.040;18.400;2023-05-10T06:03:11;10.45;;;3.20;;
74510;SDS011;62991;50.040;18.400;2023-05-10T06:06:11;5.45;;;3.20;;
74510;SDS011;62991;50.040;18.400;2023-05-10T06:09:12;12.65;;;3.75;;
74510;SDS011;62991;50.040;18.400;2023-05-10T06:12:13;8.70;;;4.30;;
74510;SDS011;62991;50.040;18.400;2023-05-10T06:15:14;8.63;;;3.50;;
74510;SDS011;62991;50.040;18.400;2023-05-10T06:18:14;6.13;;;3.55;;
74510;SDS011;62991;50.040;18.400;2023-05-10T06:21:15;9.63;;;4.40;;
74510;SDS011;62991;50.040;18.400;2023-05-10T06:24:16;6.95;;;3.28;;
74510;SDS011;62991;50.040;18.400;2023-05-10T06:27:16;6.90;;;2.90;;
74510;SDS011;62991;50.040;18.400;2023-05-10T06:30:17;8.05;;;3.33;;
74510;SDS011;62991;50.040;18.400;2023-05-10T06:33:18;5.88;;;3.17;;
74510;SDS011;62991;50.040;18.400;2023-05-10T06:36:19;9.20;;;3.33;;
74510;SDS011;62991;50.040;18.400;2023-05-10T06:39:20;6.72;;;3.25;;
74510;SDS011;62991;50.040;18.400;2023-05-10T06:42:21;7.63;;;3.05;;
74510;SDS011;62991;50.040;18.400;2023-05-10T06:45:21;11.55;;;3.50;;
74510;SDS011;62991;50.040;18.400;2023-05-10T06:48:22;6.55;;;3.20;;
74510;SDS011;62991;50.040;18.400;2023-05-10T06:51:23;9.00;;;3.25;;
74510;SDS011;62991;50.040;18.400;2023-05-10T06:54:23;6.57;;;3.30;;
74510;SDS011;62991;50.040;18.400;2023-05-10T06:57:24;9.38;;;3.63;;
74510;SDS011;62991;50.040;18.400;2023-05-10T07:00:25;6.63;;;3.10;;
74510;SDS011;62991;50.040;18.400;2023-05-10T07:03:26;5.95;;;2.80;;
74510;SDS011;62991;50.040;18.400;2023-05-10T07:06:26;6.30;;;2.53;;
74510;SDS011;62991;50.040;18.400;2023-05-10T07:09:27;6.10;;;2.53;;
74510;SDS011;62991;50.040;18.400;2023-05-10T07:12:28;6.07;;;3.20;;
74510;SDS011;62991;50.040;18.400;2023-05-10T07:15:29;7.25;;;2.25;;
74510;SDS011;62991;50.040;18.400;2023-05-10T07:18:29;5.60;;;2.83;;
74510;SDS011;62991;50.040;18.400;2023-05-10T07:21:30;7.10;;;2.97;;
74510;SDS011;62991;50.040;18.400;2023-05-10T07:24:31;6.57;;;3.05;;
74510;SDS011;62991;50.040;18.400;2023-05-10T07:27:33;4.78;;;2.30;;
74510;SDS011;62991;50.040;18.400;2023-05-10T07:30:33;5.20;;;2.65;;
74510;SDS011;62991;50.040;18.400;2023-05-10T07:33:34;3.45;;;1.70;;
74510;SDS011;62991;50.040;18.400;2023-05-10T07:36:35;6.15;;;2.08;;
74510;SDS011;62991;50.040;18.400;2023-05-10T07:39:35;4.57;;;2.30;;
74510;SDS011;62991;50.040;18.400;2023-05-10T07:42:37;4.00;;;1.90;;
74510;SDS011;62991;50.040;18.400;2023-05-10T07:45:38;9.82;;;2.50;;
74510;SDS011;62991;50.040;18.400;2023-05-10T07:48:38;3.53;;;2.05;;
74510;SDS011;62991;50.040;18.400;2023-05-10T07:51:39;3.90;;;2.20;;
74510;SDS011;62991;50.040;18.400;2023-05-10T07:54:40;3.53;;;2.13;;
74510;SDS011;62991;50.040;18.400;2023-05-10T07:57:41;3.35;;;1.90;;
74510;SDS011;62991;50.040;18.400;2023-05-10T08:00:42;5.85;;;1.98;;
74510;SDS011;62991;50.040;18.400;2023-05-10T08:03:42;4.50;;;2.10;;
74510;SDS011;62991;50.040;18.400;2023-05-10T08:06:43;4.38;;;1.85;;
74510;SDS011;62991;50.040;18.400;2023-05-10T08:09:44;3.70;;;1.85;;
74510;SDS011;62991;50.040;18.400;2023-05-10T08:12:44;3.72;;;1.88;;
74510;SDS011;62991;50.040;18.400;2023-05-10T08:15:45;3.13;;;1.63;;
74510;SDS011;62991;50.040;18.400;2023-05-10T08:18:46;2.72;;;1.55;;
74510;SDS011;62991;50.040;18.400;2023-05-10T08:21:49;4.10;;;2.20;;
74510;SDS011;62991;50.040;18.400;2023-05-10T08:24:49;2.90;;;1.55;;
74510;SDS011;62991;50.040;18.400;2023-05-10T08:27:50;2.30;;;1.50;;
74510;SDS011;62991;50.040;18.400;2023-05-10T08:30:51;3.35;;;1.65;;
74510;SDS011;62991;50.040;18.400;2023-05-10T08:33:52;3.38;;;1.55;;
74510;SDS011;62991;50.040;18.400;2023-05-10T08:36:52;5.00;;;1.60;;
74510;SDS011;62991;50.040;18.400;2023-05-10T08:39:53;3.28;;;1.60;;
74510;SDS011;62991;50.040;18.400;2023-05-10T08:42:55;3.13;;;1.67;;
74510;SDS011;62991;50.040;18.400;2023-05-10T08:46:16;2.40;;;1.50;;
74510;SDS011;62991;50.040;18.400;2023-05-10T08:49:18;3.15;;;1.83;;
74510;SDS011;62991;50.040;18.400;2023-05-10T08:52:20;5.50;;;1.73;;
74510;SDS011;62991;50.040;18.400;2023-05-10T08:55:23;2.72;;;1.45;;
74510;SDS011;62991;50.040;18.400;2023-05-10T08:58:24;3.95;;;1.70;;
74510;SDS011;62991;50.040;18.400;2023-05-10T09:01:25;3.50;;;1.50;;
74510;SDS011;62991;50.040;18.400;2023-05-10T09:04:27;3.97;;;1.75;;
74510;SDS011;62991;50.040;18.400;2023-05-10T09:07:29;3.65;;;1.80;;
74510;SDS011;62991;50.040;18.400;2023-05-10T09:10:30;3.88;;;1.80;;
74510;SDS011;62991;50.040;18.400;2023-05-10T09:13:31;2.83;;;1.75;;
74510;SDS011;62991;50.040;18.400;2023-05-10T09:16:32;3.05;;;1.63;;
74510;SDS011;62991;50.040;18.400;2023-05-10T09:19:33;2.85;;;1.80;;
74510;SDS011;62991;50.040;18.400;2023-05-10T09:22:34;3.00;;;1.63;;
74510;SDS011;62991;50.040;18.400;2023-05-10T09:25:35;3.05;;;1.60;;
74510;SDS011;62991;50.040;18.400;2023-05-10T09:28:52;2.78;;;1.67;;
74510;SDS011;62991;50.040;18.400;2023-05-10T09:31:57;3.92;;;1.92;;
74510;SDS011;62991;50.040;18.400;2023-05-10T09:34:58;3.03;;;1.60;;
74510;SDS011;62991;50.040;18.400;2023-05-10T09:38:09;2.90;;;1.50;;
74510;SDS011;62991;50.040;18.400;2023-05-10T09:41:20;5.72;;;2.05;;
74510;SDS011;62991;50.040;18.400;2023-05-10T09:44:22;2.70;;;1.60;;
74510;SDS011;62991;50.040;18.400;2023-05-10T09:47:22;2.38;;;1.27;;
74510;SDS011;62991;50.040;18.400;2023-05-10T09:50:25;2.83;;;1.80;;
74510;SDS011;62991;50.040;18.400;2023-05-10T09:53:26;3.92;;;1.83;;
74510;SDS011;62991;50.040;18.400;2023-05-10T09:56:33;3.33;;;1.80;;
74510;SDS011;62991;50.040;18.400;2023-05-10T09:59:35;4.57;;;1.80;;
74510;SDS011;62991;50.040;18.400;2023-05-10T10:02:42;9.25;;;1.70;;
74510;SDS011;62991;50.040;18.400;2023-05-10T10:05:43;2.85;;;1.70;;
74510;SDS011;62991;50.040;18.400;2023-05-10T10:08:45;3.53;;;1.63;;
74510;SDS011;62991;50.040;18.400;2023-05-10T10:11:46;3.72;;;1.60;;
74510;SDS011;62991;50.040;18.400;2023-05-10T10:14:47;3.15;;;1.90;;
74510;SDS011;62991;50.040;18.400;2023-05-10T10:17:49;2.95;;;1.80;;
74510;SDS011;62991;50.040;18.400;2023-05-10T10:20:51;3.15;;;1.52;;
74510;SDS011;62991;50.040;18.400;2023-05-10T10:23:53;6.45;;;1.77;;
74510;SDS011;62991;50.040;18.400;2023-05-10T10:26:55;3.15;;;1.50;;
74510;SDS011;62991;50.040;18.400;2023-05-10T10:33:27;2.50;;;1.75;;
74510;SDS011;62991;50.040;18.400;2023-05-10T10:36:42;4.10;;;1.55;;
74510;SDS011;62991;50.040;18.400;2023-05-10T10:39:47;3.40;;;1.60;;
74510;SDS011;62991;50.040;18.400;2023-05-10T10:42:48;3.08;;;1.73;;
74510;SDS011;62991;50.040;18.400;2023-05-10T10:46:12;4.35;;;1.52;;
74510;SDS011;62991;50.040;18.400;2023-05-10T10:49:17;4.28;;;2.00;;
74510;SDS011;62991;50.040;18.400;2023-05-10T10:55:23;4.55;;;1.52;;
74510;SDS011;62991;50.040;18.400;2023-05-10T10:58:29;5.82;;;1.80;;
74510;SDS011;62991;50.040;18.400;2023-05-10T11:01:33;6.60;;;2.97;;
74510;SDS011;62991;50.040;18.400;2023-05-10T11:04:41;3.20;;;1.75;;
74510;SDS011;62991;50.040;18.400;2023-05-10T11:07:53;3.50;;;1.65;;
74510;SDS011;62991;50.040;18.400;2023-05-10T11:14:04;6.30;;;2.03;;
74510;SDS011;62991;50.040;18.400;2023-05-10T11:17:25;3.78;;;1.80;;
74510;SDS011;62991;50.040;18.400;2023-05-10T11:20:29;4.78;;;2.25;;
74510;SDS011;62991;50.040;18.400;2023-05-10T11:26:39;4.57;;;2.00;;
74510;SDS011;62991;50.040;18.400;2023-05-10T11:29:40;4.45;;;1.85;;
74510;SDS011;62991;50.040;18.400;2023-05-10T11:32:43;3.05;;;1.75;;
74510;SDS011;62991;50.040;18.400;2023-05-10T11:35:45;6.15;;;1.95;;
74510;SDS011;62991;50.040;18.400;2023-05-10T11:38:46;5.97;;;2.20;;
74510;SDS011;62991;50.040;18.400;2023-05-10T11:41:48;9.27;;;2.08;;
74510;SDS011;62991;50.040;18.400;2023-05-10T11:44:49;3.88;;;1.70;;
74510;SDS011;62991;50.040;18.400;2023-05-10T11:47:50;4.57;;;2.33;;
74510;SDS011;62991;50.040;18.400;2023-05-10T11:50:51;6.57;;;2.42;;
74510;SDS011;62991;50.040;18.400;2023-05-10T11:53:55;4.60;;;1.98;;
74510;SDS011;62991;50.040;18.400;2023-05-10T11:56:56;4.82;;;2.03;;
74510;SDS011;62991;50.040;18.400;2023-05-10T11:59:57;4.05;;;1.75;;
74510;SDS011;62991;50.040;18.400;2023-05-10T12:02:58;4.35;;;2.08;;
74510;SDS011;62991;50.040;18.400;2023-05-10T12:06:00;10.05;;;2.22;;
74510;SDS011;62991;50.040;18.400;2023-05-10T12:09:05;6.35;;;2.45;;
74510;SDS011;62991;50.040;18.400;2023-05-10T12:12:06;4.35;;;2.20;;
74510;SDS011;62991;50.040;18.400;2023-05-10T12:15:11;3.55;;;1.77;;
74510;SDS011;62991;50.040;18.400;2023-05-10T12:18:22;3.53;;;1.98;;
74510;SDS011;62991;50.040;18.400;2023-05-10T12:21:27;4.82;;;2.13;;
74510;SDS011;62991;50.040;18.400;2023-05-10T12:24:30;5.75;;;1.92;;
74510;SDS011;62991;50.040;18.400;2023-05-10T12:27:34;6.07;;;1.75;;
74510;SDS011;62991;50.040;18.400;2023-05-10T12:30:35;4.65;;;1.75;;
74510;SDS011;62991;50.040;18.400;2023-05-10T12:33:40;5.03;;;2.00;;
74510;SDS011;62991;50.040;18.400;2023-05-10T12:36:43;4.25;;;1.80;;
74510;SDS011;62991;50.040;18.400;2023-05-10T12:39:44;6.68;;;2.05;;
74510;SDS011;62991;50.040;18.400;2023-05-10T12:42:46;5.32;;;2.00;;
74510;SDS011;62991;50.040;18.400;2023-05-10T12:45:46;4.15;;;1.83;;
74510;SDS011;62991;50.040;18.400;2023-05-10T12:48:48;3.60;;;1.70;;
74510;SDS011;62991;50.040;18.400;2023-05-10T12:51:54;3.08;;;1.88;;
74510;SDS011;62991;50.040;18.400;2023-05-10T12:54:55;4.22;;;1.73;;
74510;SDS011;62991;50.040;18.400;2023-05-10T12:57:56;4.13;;;1.60;;
74510;SDS011;62991;50.040;18.400;2023-05-10T13:00:57;2.13;;;1.40;;
74510;SDS011;62991;50.040;18.400;2023-05-10T13:03:58;2.92;;;1.60;;
74510;SDS011;62991;50.040;18.400;2023-05-10T13:07:00;3.13;;;1.73;;
74510;SDS011;62991;50.040;18.400;2023-05-10T13:10:02;3.85;;;1.83;;
74510;SDS011;62991;50.040;18.400;2023-05-10T13:13:02;2.97;;;1.48;;
74510;SDS011;62991;50.040;18.400;2023-05-10T13:16:03;3.38;;;1.42;;
74510;SDS011;62991;50.040;18.400;2023-05-10T13:19:04;5.63;;;1.80;;
74510;SDS011;62991;50.040;18.400;2023-05-10T13:22:05;4.63;;;1.85;;
74510;SDS011;62991;50.040;18.400;2023-05-10T13:25:05;3.28;;;1.58;;
74510;SDS011;62991;50.040;18.400;2023-05-10T13:28:06;4.43;;;1.48;;
74510;SDS011;62991;50.040;18.400;2023-05-10T13:31:07;2.80;;;1.52;;
74510;SDS011;62991;50.040;18.400;2023-05-10T13:34:08;4.13;;;1.80;;
74510;SDS011;62991;50.040;18.400;2023-05-10T13:37:08;5.20;;;1.63;;
74510;SDS011;62991;50.040;18.400;2023-05-10T13:40:09;2.88;;;1.60;;
74510;SDS011;62991;50.040;18.400;2023-05-10T13:43:10;2.10;;;1.40;;
74510;SDS011;62991;50.040;18.400;2023-05-10T13:46:11;5.68;;;1.48;;
74510;SDS011;62991;50.040;18.400;2023-05-10T13:49:12;3.60;;;1.60;;
74510;SDS011;62991;50.040;18.400;2023-05-10T13:52:12;2.80;;;1.70;;
74510;SDS011;62991;50.040;18.400;2023-05-10T13:55:13;3.15;;;1.67;;
74510;SDS011;62991;50.040;18.400;2023-05-10T13:58:14;3.17;;;1.65;;
74510;SDS011;62991;50.040;18.400;2023-05-10T14:01:15;7.63;;;2.00;;
74510;SDS011;62991;50.040;18.400;2023-05-10T14:04:15;11.05;;;2.13;;
74510;SDS011;62991;50.040;18.400;2023-05-10T14:07:16;5.45;;;1.60;;
74510;SDS011;62991;50.040;18.400;2023-05-10T14:10:17;4.57;;;1.60;;
74510;SDS011;62991;50.040;18.400;2023-05-10T14:13:18;2.85;;;1.73;;
74510;SDS011;62991;50.040;18.400;2023-05-10T14:16:19;3.10;;;1.60;;
74510;SDS011;62991;50.040;18.400;2023-05-10T14:19:20;8.13;;;4.63;;
74510;SDS011;62991;50.040;18.400;2023-05-10T14:22:20;2.97;;;1.90;;
74510;SDS011;62991;50.040;18.400;2023-05-10T14:25:21;4.50;;;2.00;;
74510;SDS011;62991;50.040;18.400;2023-05-10T14:28:23;5.30;;;2.60;;
74510;SDS011;62991;50.040;18.400;2023-05-10T14:31:25;4.90;;;2.42;;
74510;SDS011;62991;50.040;18.400;2023-05-10T14:34:25;3.75;;;2.22;;
74510;SDS011;62991;50.040;18.400;2023-05-10T14:37:26;2.95;;;1.63;;
74510;SDS011;62991;50.040;18.400;2023-05-10T14:40:27;4.38;;;2.10;;
74510;SDS011;62991;50.040;18.400;2023-05-10T14:43:28;2.40;;;1.67;;
74510;SDS011;62991;50.040;18.400;2023-05-10T14:46:30;2.80;;;1.60;;
74510;SDS011;62991;50.040;18.400;2023-05-10T14:49:30;2.95;;;1.42;;
74510;SDS011;62991;50.040;18.400;2023-05-10T14:52:31;3.10;;;1.65;;
74510;SDS011;62991;50.040;18.400;2023-05-10T14:55:32;3.42;;;2.17;;
74510;SDS011;62991;50.040;18.400;2023-05-10T14:58:34;3.03;;;1.60;;
74510;SDS011;62991;50.040;18.400;2023-05-10T15:01:35;3.65;;;2.05;;
74510;SDS011;62991;50.040;18.400;2023-05-10T15:04:37;4.82;;;2.92;;
74510;SDS011;62991;50.040;18.400;2023-05-10T15:07:38;3.83;;;1.70;;
74510;SDS011;62991;50.040;18.400;2023-05-10T15:10:39;2.88;;;1.88;;
74510;SDS011;62991;50.040;18.400;2023-05-10T15:13:40;2.92;;;1.58;;
74510;SDS011;62991;50.040;18.400;2023-05-10T15:16:40;2.95;;;1.95;;
74510;SDS011;62991;50.040;18.400;2023-05-10T15:19:41;3.65;;;1.38;;
74510;SDS011;62991;50.040;18.400;2023-05-10T15:22:42;4.22;;;1.90;;
74510;SDS011;62991;50.040;18.400;2023-05-10T15:25:43;6.18;;;1.50;;
74510;SDS011;62991;50.040;18.400;2023-05-10T15:28:44;3.03;;;1.73;;
74510;SDS011;62991;50.040;18.400;2023-05-10T15:31:46;4.35;;;1.80;;
74510;SDS011;62991;50.040;18.400;2023-05-10T15:34:47;5.32;;;1.73;;
74510;SDS011;62991;50.040;18.400;2023-05-10T15:37:48;5.78;;;1.85;;
74510;SDS011;62991;50.040;18.400;2023-05-10T15:40:54;5.07;;;1.92;;
74510;SDS011;62991;50.040;18.400;2023-05-10T15:43:57;3.90;;;1.90;;
74510;SDS011;62991;50.040;18.400;2023-05-10T15:47:01;3.92;;;1.80;;
74510;SDS011;62991;50.040;18.400;2023-05-10T15:50:05;2.47;;;1.50;;
74510;SDS011;62991;50.040;18.400;2023-05-10T15:53:07;3.50;;;1.58;;
74510;SDS011;62991;50.040;18.400;2023-05-10T15:56:08;6.93;;;1.88;;
74510;SDS011;62991;50.040;18.400;2023-05-10T15:59:08;5.88;;;1.92;;
74510;SDS011;62991;50.040;18.400;2023-05-10T16:02:10;4.13;;;1.88;;
74510;SDS011;62991;50.040;18.400;2023-05-10T16:05:11;3.13;;;1.70;;
74510;SDS011;62991;50.040;18.400;2023-05-10T16:08:12;2.28;;;1.50;;
74510;SDS011;62991;50.040;18.400;2023-05-10T16:11:13;4.75;;;1.63;;
74510;SDS011;62991;50.040;18.400;2023-05-10T16:14:14;3.45;;;1.70;;
74510;SDS011;62991;50.040;18.400;2023-05-10T16:17:16;5.15;;;1.70;;
74510;SDS011;62991;50.040;18.400;2023-05-10T16:20:16;2.85;;;1.70;;
74510;SDS011;62991;50.040;18.400;2023-05-10T16:23:17;3.47;;;1.80;;
74510;SDS011;62991;50.040;18.400;2023-05-10T16:26:18;4.32;;;1.98;;
74510;SDS011;62991;50.040;18.400;2023-05-10T16:29:19;4.10;;;1.75;;
74510;SDS011;62991;50.040;18.400;2023-05-10T16:32:19;5.32;;;1.95;;
74510;SDS011;62991;50.040;18.400;2023-05-10T16:35:20;3.58;;;1.67;;
74510;SDS011;62991;50.040;18.400;2023-05-10T16:38:22;3.22;;;1.33;;
74510;SDS011;62991;50.040;18.400;2023-05-10T16:41:23;4.93;;;1.67;;
74510;SDS011;62991;50.040;18.400;2023-05-10T16:44:23;2.40;;;1.25;;
74510;SDS011;62991;50.040;18.400;2023-05-10T16:47:24;3.70;;;1.40;;
74510;SDS011;62991;50.040;18.400;2023-05-10T16:50:26;2.67;;;1.23;;
74510;SDS011;62991;50.040;18.400;2023-05-10T16:53:27;3.67;;;1.50;;
74510;SDS011;62991;50.040;18.400;2023-05-10T16:56:27;3.05;;;1.30;;
74510;SDS011;62991;50.040;18.400;2023-05-10T16:59:28;3.20;;;1.73;;
74510;SDS011;62991;50.040;18.400;2023-05-10T17:02:29;2.95;;;1.20;;
74510;SDS011;62991;50.040;18.400;2023-05-10T17:05:30;2.20;;;1.10;;
74510;SDS011;62991;50.040;18.400;2023-05-10T17:08:30;3.28;;;1.23;;
74510;SDS011;62991;50.040;18.400;2023-05-10T17:11:31;2.15;;;1.25;;
74510;SDS011;62991;50.040;18.400;2023-05-10T17:14:32;2.78;;;1.20;;
74510;SDS011;62991;50.040;18.400;2023-05-10T17:17:33;2.20;;;1.08;;
74510;SDS011;62991;50.040;18.400;2023-05-10T17:20:34;2.58;;;1.45;;
74510;SDS011;62991;50.040;18.400;2023-05-10T17:23:35;3.38;;;1.58;;
74510;SDS011;62991;50.040;18.400;2023-05-10T17:26:37;4.20;;;2.13;;
74510;SDS011;62991;50.040;18.400;2023-05-10T17:29:48;4.95;;;2.45;;
74510;SDS011;62991;50.040;18.400;2023-05-10T17:32:49;4.65;;;2.40;;
74510;SDS011;62991;50.040;18.400;2023-05-10T17:35:49;5.60;;;2.65;;
74510;SDS011;62991;50.040;18.400;2023-05-10T17:38:50;5.85;;;2.50;;
74510;SDS011;62991;50.040;18.400;2023-05-10T17:41:51;8.18;;;2.92;;
74510;SDS011;62991;50.040;18.400;2023-05-10T17:44:52;4.93;;;2.90;;
74510;SDS011;62991;50.040;18.400;2023-05-10T17:47:52;5.53;;;2.90;;
74510;SDS011;62991;50.040;18.400;2023-05-10T17:50:54;5.00;;;2.88;;
74510;SDS011;62991;50.040;18.400;2023-05-10T17:53:55;4.38;;;2.58;;
74510;SDS011;62991;50.040;18.400;2023-05-10T17:56:56;6.53;;;2.92;;
74510;SDS011;62991;50.040;18.400;2023-05-10T17:59:57;6.38;;;2.80;;
74510;SDS011;62991;50.040;18.400;2023-05-10T18:02:57;8.07;;;3.70;;
74510;SDS011;62991;50.040;18.400;2023-05-10T18:05:58;10.73;;;4.93;;
74510;SDS011;62991;50.040;18.400;2023-05-10T18:08:59;12.32;;;5.38;;
74510;SDS011;62991;50.040;18.400;2023-05-10T18:12:02;12.95;;;5.82;;
74510;SDS011;62991;50.040;18.400;2023-05-10T18:15:03;11.90;;;6.40;;
74510;SDS011;62991;50.040;18.400;2023-05-10T18:18:05;24.92;;;11.55;;
74510;SDS011;62991;50.040;18.400;2023-05-10T18:21:05;51.13;;;19.38;;
74510;SDS011;62991;50.040;18.400;2023-05-10T18:24:06;104.30;;;32.53;;
74510;SDS011;62991;50.040;18.400;2023-05-10T18:27:07;36.75;;;14.40;;